Aviation Digital Data Service (ADDS)

Output produced by METARs form (2326 UTC 22 December 2014)
found at http://aviationweather.gov/adds/metars/
 
KDCA 222038Z 2221/2318 03009KT 2SM -RA BKN010 OVC030 
     FM230900 VRB03KT 3SM -RA BR OVC003 
     FM231100 00000KT 3SM -DZ BR OVC003 
     FM231500 00000KT 3SM -DZ BR OVC008